Time;durP1;ratioP1;P1;durP2;ratioP2;P2;SDS_P1;SDS_P2;PMS_P1;PMS_P2;Temp;Humidity;BMP_temperature;BMP_pressure;BME280_temperature;BME280_humidity;BME280_pressure;Samples;Min_cycle;Max_cycle;Signal;HPM_P1;HPM_P2
2023/12/27 00:01:27;;;;;;;18.08;10.40;;;;;;;8.36;70.40;100044.91;5140622;27;20294;-67
2023/12/27 00:03:53;;;;;;;17.85;10.82;;;;;;;8.27;71.46;100056.22;5142288;27;20382;-66
2023/12/27 00:06:18;;;;;;;18.15;12.20;;;;;;;8.39;71.19;100068.38;5142930;27;20266;-66
2023/12/27 00:08:44;;;;;;;17.15;12.70;;;;;;;8.38;70.86;100063.22;5143127;27;20043;-65
2023/12/27 00:11:10;;;;;;;18.05;11.75;;;;;;;8.11;71.82;100072.63;5142439;27;20027;-65
2023/12/27 00:13:35;;;;;;;17.88;11.95;;;;;;;8.02;72.51;100070.81;5142928;27;20782;-68
2023/12/27 00:16:01;;;;;;;18.98;10.43;;;;;;;7.98;71.18;100082.59;5143126;27;20045;-66
2023/12/27 00:18:26;;;;;;;15.10;9.02;;;;;;;7.84;72.62;100078.56;5143084;27;20039;-66
2023/12/27 00:20:52;;;;;;;13.77;7.75;;;;;;;7.78;73.04;100088.81;5143421;27;20027;-65
2023/12/27 00:23:17;;;;;;;11.07;7.35;;;;;;;7.66;73.53;100096.00;5142967;27;20035;-66
2023/12/27 00:25:42;;;;;;;12.98;7.10;;;;;;;7.59;73.42;100086.97;5142408;27;20031;-68
2023/12/27 00:28:08;;;;;;;11.70;7.50;;;;;;;7.40;74.84;100081.63;5142221;27;20071;-67
2023/12/27 00:30:34;;;;;;;15.75;8.10;;;;;;;7.37;75.76;100093.28;5143123;27;20027;-67
2023/12/27 00:32:59;;;;;;;20.50;8.82;;;;;;;7.39;76.03;100096.63;5142114;27;20043;-68
2023/12/27 00:35:24;;;;;;;19.38;9.02;;;;;;;7.51;75.96;100098.19;5142326;27;20043;-66
2023/12/27 00:37:50;;;;;;;15.45;8.65;;;;;;;7.70;75.75;100105.31;5143007;27;20317;-68
2023/12/27 00:40:15;;;;;;;17.42;8.18;;;;;;;7.82;74.78;100100.75;5142546;27;20336;-65
2023/12/27 00:42:41;;;;;;;11.52;7.10;;;;;;;7.98;74.22;100103.69;5143329;27;20381;-66
2023/12/27 00:45:07;;;;;;;12.20;7.32;;;;;;;8.12;74.04;100110.38;5142774;27;20046;-66
2023/12/27 00:47:32;;;;;;;12.85;7.80;;;;;;;8.24;73.53;100110.09;5142462;27;20035;-68
2023/12/27 00:49:58;;;;;;;14.82;7.68;;;;;;;8.37;72.84;100101.16;5142599;27;20263;-66
2023/12/27 00:52:23;;;;;;;15.20;8.25;;;;;;;8.47;71.96;100100.16;5142513;27;20241;-68
2023/12/27 00:54:49;;;;;;;15.43;8.07;;;;;;;8.50;72.17;100099.88;5142561;27;20328;-65
2023/12/27 00:57:14;;;;;;;37.30;16.02;;;;;;;8.54;71.96;100111.00;5141896;27;20335;-66
2023/12/27 00:59:40;;;;;;;18.10;9.45;;;;;;;8.42;72.45;100104.19;5142025;27;20355;-68
2023/12/27 01:02:06;;;;;;;15.63;8.35;;;;;;;8.32;72.51;100106.78;5141780;27;20439;-66
2023/12/27 01:04:33;;;;;;;13.05;8.25;;;;;;;8.31;72.62;100099.84;5142284;27;20048;-68
2023/12/27 01:06:59;;;;;;;21.08;14.80;;;;;;;8.23;73.32;100102.34;5141747;27;20034;-68
2023/12/27 01:09:25;;;;;;;16.65;11.65;;;;;;;8.26;73.20;100097.63;5141613;27;20035;-65
2023/12/27 01:11:51;;;;;;;31.73;18.60;;;;;;;8.22;72.88;100109.41;5141365;27;20054;-66
2023/12/27 01:14:19;;;;;;;22.83;14.90;;;;;;;8.19;73.51;100120.25;5141621;27;20043;-68
2023/12/27 01:16:44;;;;;;;11.40;6.63;;;;;;;8.06;73.96;100118.84;5141925;27;20035;-66
2023/12/27 01:19:11;;;;;;;19.63;9.98;;;;;;;8.01;74.52;100127.16;5141944;27;20046;-66
2023/12/27 01:21:36;;;;;;;16.83;9.57;;;;;;;7.83;75.76;100131.44;5141990;27;20038;-68
2023/12/27 01:24:02;;;;;;;14.40;7.32;;;;;;;7.81;75.96;100128.09;5141829;27;20214;-68
2023/12/27 01:26:27;;;;;;;10.88;6.35;;;;;;;7.57;77.26;100120.53;5141773;27;20139;-67
2023/12/27 01:28:53;;;;;;;12.43;6.63;;;;;;;7.66;77.68;100120.56;5142335;27;20031;-67
2023/12/27 01:31:18;;;;;;;10.40;6.72;;;;;;;7.89;76.83;100112.44;5141677;27;20514;-67
2023/12/27 01:33:44;;;;;;;12.63;7.50;;;;;;;8.07;75.95;100112.59;5141114;27;20047;-65
2023/12/27 01:36:09;;;;;;;14.30;7.15;;;;;;;8.16;75.72;100117.88;5141025;27;20084;-68
2023/12/27 01:38:35;;;;;;;11.82;5.43;;;;;;;8.23;75.96;100120.78;5141245;27;20329;-67
2023/12/27 01:41:00;;;;;;;8.45;4.95;;;;;;;8.35;76.02;100118.91;5141162;27;20039;-67
2023/12/27 01:43:26;;;;;;;7.13;4.80;;;;;;;8.53;75.05;100117.25;5140718;27;20031;-66
2023/12/27 01:45:51;;;;;;;5.45;3.97;;;;;;;8.60;75.39;100113.91;5141139;27;20039;-66
2023/12/27 01:48:21;;;;;;;7.13;4.35;;;;;;;8.68;74.79;100123.78;5141598;27;20210;-66
2023/12/27 01:50:50;;;;;;;13.40;8.35;;;;;;;8.79;74.99;100126.25;5141100;27;20031;-68
2023/12/27 01:53:17;;;;;;;10.65;5.50;;;;;;;8.81;73.87;100115.56;5140446;27;20039;-68
2023/12/27 01:55:43;;;;;;;8.27;5.15;;;;;;;8.67;72.78;100118.63;5140565;27;20241;-66
2023/12/27 01:58:11;;;;;;;10.95;5.68;;;;;;;8.31;73.39;100137.59;5140063;27;20102;-67
2023/12/27 02:00:39;;;;;;;8.75;5.22;;;;;;;8.14;74.80;100133.00;5140288;27;20031;-67
2023/12/27 02:03:05;;;;;;;11.75;6.28;;;;;;;7.71;76.63;100130.69;5139857;27;20054;-68
2023/12/27 02:05:31;;;;;;;9.88;5.30;;;;;;;7.67;77.53;100124.84;5139989;27;20027;-66
2023/12/27 02:07:58;;;;;;;10.05;5.75;;;;;;;7.68;77.71;100118.63;5140501;27;20035;-68
2023/12/27 02:10:23;;;;;;;10.90;7.85;;;;;;;7.78;77.70;100121.28;5140968;27;20080;-67
2023/12/27 02:12:49;;;;;;;8.65;5.85;;;;;;;7.91;77.49;100121.88;5140538;27;20043;-68
2023/12/27 02:15:14;;;;;;;11.95;8.50;;;;;;;7.95;77.62;100123.25;5139762;27;20045;-67
2023/12/27 02:17:40;;;;;;;10.48;7.82;;;;;;;7.97;76.85;100126.59;5140006;27;20054;-66
2023/12/27 02:20:06;;;;;;;16.52;9.13;;;;;;;8.04;76.71;100118.13;5140338;27;20030;-66
2023/12/27 02:22:34;;;;;;;15.82;11.48;;;;;;;8.19;75.66;100114.13;5140054;27;20041;-68
2023/12/27 02:25:00;;;;;;;10.63;6.90;;;;;;;8.16;75.65;100115.25;5139598;27;20256;-66
2023/12/27 02:27:25;;;;;;;7.50;4.90;;;;;;;7.94;76.76;100121.59;5139443;27;20032;-68
2023/12/27 02:29:51;;;;;;;8.70;4.57;;;;;;;8.00;76.05;100122.84;5139748;27;20076;-66
2023/12/27 02:32:16;;;;;;;6.60;4.32;;;;;;;8.16;76.19;100128.44;5140334;27;20039;-67
2023/12/27 02:34:42;;;;;;;6.32;4.45;;;;;;;8.15;75.93;100125.94;5140657;27;20039;-66
2023/12/27 02:37:07;;;;;;;6.75;4.43;;;;;;;8.35;75.08;100127.66;5140137;27;20108;-68
2023/12/27 02:39:33;;;;;;;6.78;3.97;;;;;;;8.50;74.51;100130.72;5139883;27;20310;-66
2023/12/27 02:41:58;;;;;;;6.95;4.15;;;;;;;8.59;73.98;100121.97;5139631;27;20038;-68
2023/12/27 02:44:27;;;;;;;6.10;3.95;;;;;;;8.76;73.74;100129.19;5139621;27;20098;-67
2023/12/27 02:46:53;;;;;;;8.23;4.20;;;;;;;8.87;72.85;100128.19;5139205;27;20341;-66
2023/12/27 02:49:19;;;;;;;10.38;8.27;;;;;;;8.84;73.17;100125.84;5140167;27;20033;-68
2023/12/27 02:51:44;;;;;;;7.68;5.70;;;;;;;8.95;73.32;100126.50;5140203;27;20224;-66
2023/12/27 02:54:10;;;;;;;8.07;4.22;;;;;;;9.04;74.14;100134.53;5140131;27;20047;-68
2023/12/27 02:56:35;;;;;;;5.47;3.88;;;;;;;9.11;74.74;100131.19;5139683;27;20031;-66
2023/12/27 02:59:01;;;;;;;8.45;4.38;;;;;;;9.24;75.16;100144.91;5139949;27;20049;-68
2023/12/27 03:01:26;;;;;;;5.20;3.40;;;;;;;9.36;75.72;100142.94;5139745;27;20047;-65
2023/12/27 03:03:52;;;;;;;9.10;3.90;;;;;;;9.44;76.07;100147.53;5139363;27;20027;-68
2023/12/27 03:06:17;;;;;;;9.50;3.75;;;;;;;9.51;75.35;100152.09;5139145;27;20345;-65
2023/12/27 03:08:43;;;;;;;6.97;4.95;;;;;;;9.66;72.91;100164.84;5139533;27;20042;-66
2023/12/27 03:11:08;;;;;;;15.48;7.15;;;;;;;9.55;71.72;100158.75;5140234;27;20039;-68
2023/12/27 03:13:34;;;;;;;11.55;5.95;;;;;;;9.50;71.05;100163.63;5139771;27;20041;-67
2023/12/27 03:16:09;;;;;;;6.55;3.63;;;;;;;9.35;70.45;100183.56;5139710;27;20084;-67
2023/12/27 03:18:35;;;;;;;7.90;5.35;;;;;;;8.99;71.40;100185.16;5139755;27;20043;-67
2023/12/27 03:21:01;;;;;;;8.77;5.57;;;;;;;8.61;72.82;100186.00;5139138;27;20240;-67
2023/12/27 03:23:26;;;;;;;13.50;6.65;;;;;;;8.69;73.40;100186.16;5139190;27;20107;-67
2023/12/27 03:25:53;;;;;;;9.50;5.85;;;;;;;8.53;73.93;100193.78;5139560;28;20063;-66
2023/12/27 03:28:19;;;;;;;7.50;5.60;;;;;;;8.55;74.78;100176.00;5139457;28;20054;-66
2023/12/27 03:30:45;;;;;;;9.77;6.15;;;;;;;8.74;74.82;100181.28;5139254;28;20331;-66
2023/12/27 03:33:10;;;;;;;6.38;4.53;;;;;;;8.86;73.43;100181.97;5139466;28;20104;-68
2023/12/27 03:35:36;;;;;;;6.63;5.07;;;;;;;8.62;72.92;100185.88;5139813;27;20043;-66
2023/12/27 03:38:01;;;;;;;8.95;5.03;;;;;;;8.59;73.04;100191.44;5143694;27;20039;-68
2023/12/27 03:40:27;;;;;;;12.52;6.78;;;;;;;8.58;73.07;100189.78;5142874;27;20027;-65
2023/12/27 03:42:53;;;;;;;8.75;5.00;;;;;;;8.46;73.93;100190.88;5142728;27;20233;-68
2023/12/27 03:45:18;;;;;;;13.10;6.70;;;;;;;8.45;75.08;100188.38;5142573;27;20326;-67
2023/12/27 03:47:45;;;;;;;7.85;4.72;;;;;;;8.52;74.93;100194.75;5142309;27;20043;-67
2023/12/27 03:50:11;;;;;;;7.72;4.20;;;;;;;8.47;75.68;100189.06;5142990;27;20080;-68
2023/12/27 03:52:37;;;;;;;11.38;4.60;;;;;;;8.53;75.77;100199.91;5124387;27;20039;-67
2023/12/27 03:55:03;;;;;;;14.70;5.70;;;;;;;8.36;77.33;100191.84;5143651;27;20333;-66
2023/12/27 03:57:29;;;;;;;11.15;5.35;;;;;;;8.45;77.18;100193.66;5143058;27;20053;-65
2023/12/27 03:59:54;;;;;;;5.70;4.00;;;;;;;8.42;77.95;100207.94;5142652;27;20023;-66
2023/12/27 04:02:20;;;;;;;7.25;4.85;;;;;;;8.54;77.96;100201.56;5142142;27;20345;-66
2023/12/27 04:04:48;;;;;;;8.00;5.88;;;;;;;8.58;77.75;100202.13;5143228;27;20035;-68
2023/12/27 04:07:14;;;;;;;5.03;3.85;;;;;;;8.81;76.99;100187.69;5143007;27;20031;-67
2023/12/27 04:09:40;;;;;;;7.40;4.00;;;;;;;8.91;77.13;100191.16;5143270;27;20034;-68
2023/12/27 04:12:08;;;;;;;8.80;5.68;;;;;;;9.06;76.57;100194.19;5142392;27;20337;-67
2023/12/27 04:14:34;;;;;;;6.85;5.38;;;;;;;9.30;75.87;100206.94;5142025;27;20058;-66
2023/12/27 04:16:59;;;;;;;11.80;7.72;;;;;;;9.00;76.61;100202.66;5142285;27;20035;-67
2023/12/27 04:19:25;;;;;;;14.35;7.45;;;;;;;9.01;76.66;100206.97;5143044;27;20031;-66
2023/12/27 04:21:51;;;;;;;11.68;5.93;;;;;;;8.90;77.03;100215.06;5143240;27;20049;-68
2023/12/27 04:24:16;;;;;;;14.55;6.60;;;;;;;9.12;76.30;100227.13;5142708;27;20030;-66
2023/12/27 04:26:42;;;;;;;5.20;3.38;;;;;;;9.29;75.43;100210.56;5143210;27;20070;-67
2023/12/27 04:29:08;;;;;;;8.00;4.75;;;;;;;9.48;74.78;100220.28;5142708;27;20234;-66
2023/12/27 04:31:36;;;;;;;10.27;6.82;;;;;;;9.36;75.26;100234.59;5142569;27;20062;-67
2023/12/27 04:34:02;;;;;;;13.75;7.55;;;;;;;9.17;75.93;100235.47;5141767;27;20047;-68
2023/12/27 04:36:27;;;;;;;7.07;5.38;;;;;;;9.07;77.05;100238.13;5141567;27;20083;-66
2023/12/27 04:38:53;;;;;;;6.28;4.15;;;;;;;9.27;75.95;100242.41;5141827;27;20038;-68
2023/12/27 04:41:18;;;;;;;5.75;3.55;;;;;;;9.35;76.56;100251.44;5142101;27;20034;-67
2023/12/27 04:43:44;;;;;;;8.10;3.83;;;;;;;9.41;76.51;100254.38;5141710;27;20330;-67
2023/12/27 04:46:10;;;;;;;4.65;2.80;;;;;;;9.46;76.68;100254.78;5141978;27;20035;-66
2023/12/27 04:48:36;;;;;;;6.32;3.10;;;;;;;9.51;76.31;100259.63;5141343;27;20050;-68
2023/12/27 04:51:02;;;;;;;7.63;3.35;;;;;;;9.61;75.93;100260.44;5141779;27;20069;-66
2023/12/27 04:53:27;;;;;;;8.00;3.20;;;;;;;9.69;76.18;100257.91;5141714;27;20055;-66
2023/12/27 04:55:53;;;;;;;6.28;3.47;;;;;;;9.76;75.73;100256.38;5142655;27;20301;-67
2023/12/27 04:58:18;;;;;;;5.57;3.70;;;;;;;9.83;75.00;100257.47;5141946;27;20050;-68
2023/12/27 05:00:44;;;;;;;6.57;4.57;;;;;;;9.89;75.08;100261.34;5141642;27;20027;-65
2023/12/27 05:03:09;;;;;;;7.65;4.32;;;;;;;9.97;74.60;100265.91;5142078;27;20031;-68
2023/12/27 05:05:36;;;;;;;11.30;6.43;;;;;;;10.01;74.63;100269.91;5142106;27;20078;-68
2023/12/27 05:08:02;;;;;;;10.88;6.70;;;;;;;10.06;74.16;100278.25;5142306;27;20337;-68
2023/12/27 05:10:27;;;;;;;12.25;6.57;;;;;;;10.08;74.19;100290.34;5142407;27;20270;-68
2023/12/27 05:12:53;;;;;;;8.57;4.88;;;;;;;10.18;73.25;100309.69;5141491;27;20210;-66
2023/12/27 05:15:19;;;;;;;7.55;4.00;;;;;;;10.26;73.03;100302.84;5141539;27;20046;-68
2023/12/27 05:17:45;;;;;;;8.88;5.88;;;;;;;10.31;72.56;100297.94;5141054;27;20261;-68
2023/12/27 05:20:11;;;;;;;7.10;4.97;;;;;;;10.35;71.71;100302.81;5141582;27;20070;-68
2023/12/27 05:22:39;;;;;;;7.18;4.05;;;;;;;10.34;71.74;100302.94;5141563;27;20317;-68
2023/12/27 05:25:07;;;;;;;7.93;5.13;;;;;;;10.31;71.65;100306.72;5141823;27;20244;-66
2023/12/27 05:27:32;;;;;;;11.05;6.65;;;;;;;10.19;72.27;100307.88;5141588;27;20035;-68
2023/12/27 05:29:58;;;;;;;9.20;6.80;;;;;;;9.92;72.58;100306.00;5141773;27;20051;-66
2023/12/27 05:32:24;;;;;;;8.75;5.10;;;;;;;9.95;72.04;100299.59;5141092;27;20080;-67
2023/12/27 05:34:53;;;;;;;7.78;4.00;;;;;;;9.93;72.32;100315.63;5141790;27;20098;-65
2023/12/27 05:37:19;;;;;;;6.50;3.58;;;;;;;9.69;72.99;100316.09;5141698;27;20200;-65
2023/12/27 05:39:45;;;;;;;7.65;3.50;;;;;;;9.71;73.65;100334.47;5141904;27;20062;-67
2023/12/27 05:42:13;;;;;;;6.47;3.88;;;;;;;9.61;73.95;100345.06;5141797;27;20388;-68
2023/12/27 05:44:39;;;;;;;7.28;4.07;;;;;;;9.71;73.69;100348.53;5140914;27;20038;-66
2023/12/27 05:47:04;;;;;;;12.40;7.88;;;;;;;9.67;73.42;100346.31;5141453;27;20090;-67
2023/12/27 05:49:30;;;;;;;12.82;8.32;;;;;;;9.66;73.95;100344.63;5141453;27;20031;-68
2023/12/27 05:51:55;;;;;;;12.93;8.93;;;;;;;9.66;73.94;100356.03;5141481;27;20084;-68
2023/12/27 05:54:21;;;;;;;9.27;6.07;;;;;;;9.60;73.71;100349.50;5140806;27;20062;-66
2023/12/27 05:56:46;;;;;;;15.65;7.40;;;;;;;9.65;74.09;100346.44;5140771;27;20062;-66
2023/12/27 05:59:12;;;;;;;10.63;4.50;;;;;;;9.68;73.79;100345.31;5140694;27;20035;-68
2023/12/27 06:01:38;;;;;;;7.40;4.00;;;;;;;9.67;73.72;100341.84;5141114;27;20051;-67
2023/12/27 06:04:04;;;;;;;6.18;3.90;;;;;;;9.68;73.83;100346.16;5140755;27;20057;-67
2023/12/27 06:06:30;;;;;;;6.82;4.10;;;;;;;9.72;73.72;100346.72;5140389;27;20341;-66
2023/12/27 06:08:55;;;;;;;9.00;4.15;;;;;;;9.80;74.09;100347.66;5140986;27;20043;-68
2023/12/27 06:11:21;;;;;;;6.05;3.67;;;;;;;9.79;74.29;100359.22;5141208;27;20042;-68
2023/12/27 06:13:46;;;;;;;5.75;3.80;;;;;;;9.62;75.15;100364.41;5140768;27;20056;-66
2023/12/27 06:16:12;;;;;;;8.35;4.78;;;;;;;9.56;75.54;100371.09;5140503;27;20042;-67
2023/12/27 06:18:37;;;;;;;9.63;4.72;;;;;;;9.62;75.51;100359.13;5139905;27;20039;-68
2023/12/27 06:21:03;;;;;;;7.00;3.92;;;;;;;9.64;75.40;100359.81;5141173;27;20352;-66
2023/12/27 06:23:28;;;;;;;5.82;4.15;;;;;;;9.65;75.79;100367.59;5140492;27;20372;-65
2023/12/27 06:25:54;;;;;;;5.78;4.28;;;;;;;9.54;76.76;100371.22;5140570;27;20417;-67
2023/12/27 06:28:20;;;;;;;6.18;4.50;;;;;;;9.64;76.83;100375.66;5139401;27;20043;-68
2023/12/27 06:30:47;;;;;;;9.23;4.28;;;;;;;9.71;77.13;100382.06;5139543;27;20035;-66
2023/12/27 06:33:12;;;;;;;8.18;5.13;;;;;;;9.24;79.45;100384.53;5139439;27;20241;-68
2023/12/27 06:35:38;;;;;;;9.32;5.18;;;;;;;9.26;80.42;100387.88;5139281;27;20045;-68
2023/12/27 06:38:03;;;;;;;13.40;7.30;;;;;;;9.19;80.88;100387.59;5139210;27;20331;-66
2023/12/27 06:40:28;;;;;;;9.10;5.70;;;;;;;9.24;81.28;100406.53;5139845;27;20066;-65
2023/12/27 06:42:54;;;;;;;10.85;5.57;;;;;;;9.21;81.63;100398.88;5139785;27;20061;-66
2023/12/27 06:45:19;;;;;;;10.38;5.07;;;;;;;9.23;81.54;100402.22;5139306;27;20049;-66
2023/12/27 06:47:45;;;;;;;9.07;6.00;;;;;;;9.30;81.51;100410.41;5139342;27;20039;-67
2023/12/27 06:50:10;;;;;;;9.73;6.15;;;;;;;9.32;81.72;100415.56;5139126;27;20339;-66
2023/12/27 06:52:36;;;;;;;9.38;5.97;;;;;;;9.48;81.45;100424.66;5120608;27;20066;-68
2023/12/27 06:55:01;;;;;;;10.82;5.95;;;;;;;9.43;82.04;100423.41;5139113;27;20035;-66
2023/12/27 06:57:27;;;;;;;10.85;6.45;;;;;;;9.67;81.24;100425.63;5139836;27;20035;-66
2023/12/27 06:59:53;;;;;;;14.55;8.40;;;;;;;9.59;82.09;100443.03;5139978;27;20047;-65
2023/12/27 07:02:19;;;;;;;11.90;9.23;;;;;;;9.70;82.77;100442.06;5139672;27;20047;-67
2023/12/27 07:04:44;;;;;;;14.73;9.40;;;;;;;9.80;82.76;100447.34;5139606;27;20035;-66
2023/12/27 07:07:10;;;;;;;16.27;10.50;;;;;;;9.87;82.55;100449.28;5139840;27;20139;-68
2023/12/27 07:09:36;;;;;;;12.15;7.22;;;;;;;9.69;83.92;100450.97;5139784;27;20324;-66
2023/12/27 07:12:01;;;;;;;13.40;6.75;;;;;;;9.84;83.78;100457.50;5137776;27;20389;-66
2023/12/27 07:14:27;;;;;;;13.85;6.00;;;;;;;10.04;83.18;100460.13;5138895;27;20152;-66
2023/12/27 07:16:53;;;;;;;7.18;5.10;;;;;;;10.03;83.27;100455.81;5138884;27;20397;-66
2023/12/27 07:19:18;;;;;;;9.43;5.80;;;;;;;10.07;83.59;100449.25;5138664;27;20061;-68
2023/12/27 07:21:44;;;;;;;8.57;5.80;;;;;;;10.32;82.97;100463.72;5139156;27;20035;-68
2023/12/27 07:24:09;;;;;;;7.13;5.15;;;;;;;10.62;81.72;100462.69;5138926;27;20084;-66
2023/12/27 07:26:35;;;;;;;7.63;4.25;;;;;;;10.81;78.78;100460.81;5138869;28;20324;-65
2023/12/27 07:29:00;;;;;;;8.07;4.88;;;;;;;10.95;77.64;100461.31;5138283;28;20343;-66
2023/12/27 07:31:26;;;;;;;8.15;5.13;;;;;;;11.11;77.87;100472.94;5139149;28;20042;-67
2023/12/27 07:33:51;;;;;;;7.13;4.30;;;;;;;11.31;76.89;100463.06;5138773;28;20050;-66
2023/12/27 07:36:17;;;;;;;10.10;5.00;;;;;;;11.46;75.64;100466.91;5139632;28;20035;-66
2023/12/27 07:38:42;;;;;;;9.00;4.78;;;;;;;11.60;74.51;100470.84;5138846;28;20076;-66
2023/12/27 07:41:08;;;;;;;10.80;4.40;;;;;;;11.80;73.94;100479.53;5140087;28;20088;-68
2023/12/27 07:43:35;;;;;;;8.90;4.40;;;;;;;11.93;73.03;100482.63;5139251;28;20035;-67
2023/12/27 07:46:01;;;;;;;7.35;3.72;;;;;;;12.09;72.75;100481.91;5138837;28;20254;-67
2023/12/27 07:48:27;;;;;;;7.45;3.50;;;;;;;12.23;71.12;100480.53;5138054;28;20028;-67
2023/12/27 07:50:52;;;;;;;8.02;3.22;;;;;;;12.38;70.44;100478.97;5139141;28;20129;-68
2023/12/27 07:53:18;;;;;;;7.32;3.78;;;;;;;12.46;70.50;100490.50;5139394;28;20039;-67
2023/12/27 07:55:43;;;;;;;5.18;3.42;;;;;;;12.66;70.06;100503.59;5138652;28;20116;-66
2023/12/27 07:58:09;;;;;;;5.97;3.20;;;;;;;12.79;69.87;100502.19;5138289;28;20317;-68
2023/12/27 08:00:35;;;;;;;6.43;3.22;;;;;;;12.90;69.86;100498.41;5138432;28;20328;-66
2023/12/27 08:03:03;;;;;;;5.90;3.60;;;;;;;13.00;69.97;100506.28;5138652;28;20364;-68
2023/12/27 08:05:28;;;;;;;5.93;3.97;;;;;;;12.96;70.23;100515.56;5139025;28;20039;-68
2023/12/27 08:07:54;;;;;;;6.85;3.63;;;;;;;13.12;70.04;100518.28;5138594;28;20035;-66
2023/12/27 08:10:19;;;;;;;9.60;3.63;;;;;;;13.21;69.02;100513.88;5138992;28;20149;-67
2023/12/27 08:12:46;;;;;;;9.45;3.60;;;;;;;13.32;69.40;100518.91;5138538;28;20039;-68
2023/12/27 08:15:11;;;;;;;6.32;3.92;;;;;;;13.43;68.39;100531.91;5138328;28;20039;-66
2023/12/27 08:17:37;;;;;;;7.20;3.63;;;;;;;13.57;68.36;100535.81;5139389;28;20034;-68
2023/12/27 08:20:04;;;;;;;5.85;3.53;;;;;;;13.61;66.96;100542.47;5139486;28;20058;-68
2023/12/27 08:22:30;;;;;;;7.07;3.75;;;;;;;13.70;66.41;100545.00;5140937;27;20225;-66
2023/12/27 08:24:56;;;;;;;5.45;3.15;;;;;;;13.78;66.02;100546.84;5143284;27;20232;-67
2023/12/27 08:27:21;;;;;;;5.53;3.00;;;;;;;13.71;65.38;100540.50;5142977;27;20027;-68
2023/12/27 08:29:47;;;;;;;5.25;2.58;;;;;;;13.81;64.45;100546.50;5142694;27;20051;-68
2023/12/27 08:32:12;;;;;;;6.43;3.42;;;;;;;13.91;64.62;100549.03;5142606;27;20035;-68
2023/12/27 08:34:38;;;;;;;10.15;3.30;;;;;;;13.92;63.94;100550.69;5142375;27;20041;-67
2023/12/27 08:37:03;;;;;;;6.18;3.00;;;;;;;13.95;64.37;100555.69;5142751;27;20033;-68
2023/12/27 08:39:29;;;;;;;5.38;3.13;;;;;;;14.01;63.49;100547.88;5142509;27;20023;-67
2023/12/27 08:41:54;;;;;;;6.55;3.10;;;;;;;14.09;63.44;100556.88;5142615;27;20043;-68
2023/12/27 08:44:20;;;;;;;5.45;2.95;;;;;;;14.10;63.50;100547.88;5142214;27;20079;-66
2023/12/27 08:46:45;;;;;;;3.60;2.78;;;;;;;14.12;63.55;100543.22;5142923;27;20091;-68
2023/12/27 08:49:11;;;;;;;5.90;2.83;;;;;;;14.18;64.01;100547.88;5142609;27;20035;-68
2023/12/27 08:51:37;;;;;;;8.60;4.00;;;;;;;14.26;64.54;100546.06;5142484;27;20089;-66
2023/12/27 08:54:03;;;;;;;6.28;2.90;;;;;;;14.30;63.64;100550.06;5142027;27;20043;-67
2023/12/27 08:56:28;;;;;;;6.70;3.17;;;;;;;14.35;63.60;100545.06;5142675;27;20067;-67
2023/12/27 08:58:54;;;;;;;5.30;2.75;;;;;;;14.36;63.46;100537.91;5142246;27;20039;-66
2023/12/27 09:01:19;;;;;;;5.20;3.08;;;;;;;14.40;63.77;100525.91;5141924;27;20066;-68
2023/12/27 09:03:45;;;;;;;5.45;3.15;;;;;;;14.34;64.68;100526.56;5142172;27;20041;-68
2023/12/27 09:06:10;;;;;;;6.40;3.85;;;;;;;14.48;63.98;100519.75;5142109;27;20055;-66
2023/12/27 09:08:37;;;;;;;3.58;3.05;;;;;;;14.50;64.31;100529.25;5141163;27;20035;-67
2023/12/27 09:11:04;;;;;;;6.70;3.60;;;;;;;14.57;64.37;100518.78;5141334;27;20084;-68
2023/12/27 09:13:29;;;;;;;7.00;3.50;;;;;;;14.60;63.74;100518.44;5140873;27;20047;-66
2023/12/27 09:15:55;;;;;;;5.32;3.70;;;;;;;14.64;63.70;100514.44;5141298;27;20034;-68
2023/12/27 09:18:20;;;;;;;10.30;3.65;;;;;;;14.63;64.15;100516.28;5141000;27;20031;-66
2023/12/27 09:20:46;;;;;;;6.65;3.65;;;;;;;14.67;64.31;100516.75;5140811;27;20098;-67
2023/12/27 09:23:11;;;;;;;8.60;6.22;;;;;;;14.71;64.39;100520.75;5140570;27;20058;-66
2023/12/27 09:25:37;;;;;;;6.63;4.40;;;;;;;14.76;64.41;100513.09;5141310;27;20042;-68
2023/12/27 09:28:03;;;;;;;6.85;3.78;;;;;;;14.79;63.74;100510.06;5141690;27;20035;-68
2023/12/27 09:30:29;;;;;;;6.95;3.97;;;;;;;14.83;64.32;100507.91;5141825;27;20058;-67
2023/12/27 09:32:55;;;;;;;6.70;4.22;;;;;;;14.90;64.52;100506.22;5141842;27;20038;-68
2023/12/27 09:35:20;;;;;;;8.63;4.40;;;;;;;14.99;64.20;100513.19;5140872;27;20054;-66
2023/12/27 09:37:46;;;;;;;8.18;3.95;;;;;;;15.00;64.20;100507.69;5141497;27;20405;-67
2023/12/27 09:40:11;;;;;;;8.05;3.70;;;;;;;15.05;63.94;100509.00;5141741;27;20096;-66
2023/12/27 09:42:39;;;;;;;7.78;4.25;;;;;;;15.07;64.22;100501.66;5141124;27;20031;-68
2023/12/27 09:45:08;;;;;;;12.73;4.05;;;;;;;15.11;63.97;100505.63;5140655;27;20031;-67
2023/12/27 09:47:37;;;;;;;6.50;3.88;;;;;;;15.17;64.15;100492.44;5140170;27;20111;-68
2023/12/27 09:50:04;;;;;;;6.28;3.30;;;;;;;15.20;64.12;100491.25;5140711;27;20037;-68
2023/12/27 09:52:33;;;;;;;10.43;3.95;;;;;;;15.27;63.60;100489.56;5141038;27;20038;-67
2023/12/27 09:54:59;;;;;;;5.18;4.07;;;;;;;15.32;63.35;100484.53;5141319;27;20035;-67
2023/12/27 09:57:25;;;;;;;5.38;3.67;;;;;;;15.33;63.10;100481.69;5141404;27;20026;-67
2023/12/27 09:59:53;;;;;;;8.23;4.90;;;;;;;15.36;62.92;100475.16;5140892;27;20318;-67
2023/12/27 10:02:19;;;;;;;10.00;4.88;;;;;;;15.42;63.04;100476.31;5140217;27;20103;-67
2023/12/27 10:04:53;;;;;;;8.63;3.78;;;;;;;15.46;62.89;100491.78;5140530;27;20039;-68
2023/12/27 10:07:22;;;;;;;13.98;4.75;;;;;;;15.47;63.04;100480.09;5141035;27;20066;-68
2023/12/27 10:09:48;;;;;;;5.40;3.30;;;;;;;15.53;63.36;100470.56;5141214;27;20054;-67
2023/12/27 10:12:15;;;;;;;6.65;3.20;;;;;;;15.62;62.56;100474.91;5140852;27;20039;-68
2023/12/27 10:14:42;;;;;;;3.70;3.00;;;;;;;15.58;60.75;100476.25;5140491;27;20035;-68
2023/12/27 10:17:08;;;;;;;8.25;4.95;;;;;;;15.67;60.92;100467.19;5140540;27;20119;-66
2023/12/27 10:19:44;;;;;;;8.10;3.35;;;;;;;15.72;60.23;100459.50;5140410;27;20241;-68
2023/12/27 10:22:12;;;;;;;5.70;2.67;;;;;;;15.76;61.08;100476.81;5140005;27;20066;-68
2023/12/27 10:24:38;;;;;;;4.40;2.55;;;;;;;15.70;59.97;100466.00;5140083;27;20095;-67
2023/12/27 10:27:05;;;;;;;4.70;2.35;;;;;;;15.77;60.70;100445.59;5139640;27;20035;-66
2023/12/27 10:29:32;;;;;;;7.65;2.88;;;;;;;15.82;60.84;100432.53;5139403;27;20075;-66
2023/12/27 10:32:00;;;;;;;5.68;3.30;;;;;;;15.80;61.15;100413.19;5139479;27;20058;-68
2023/12/27 10:34:26;;;;;;;6.22;2.88;;;;;;;15.93;58.96;100416.09;5140069;27;20066;-67
2023/12/27 10:36:57;;;;;;;4.75;3.10;;;;;;;15.87;59.83;100425.66;5140537;27;20041;-68
2023/12/27 10:39:23;;;;;;;4.22;2.33;;;;;;;15.86;59.85;100429.34;5140837;27;20054;-68
2023/12/27 10:41:52;;;;;;;5.63;3.50;;;;;;;15.92;60.11;100420.59;5140804;27;20213;-67
2023/12/27 10:44:19;;;;;;;4.72;3.08;;;;;;;15.99;59.69;100415.38;5139979;27;20117;-66
2023/12/27 10:46:44;;;;;;;5.07;2.75;;;;;;;15.97;59.69;100422.72;5140605;27;20091;-68
2023/12/27 10:49:13;;;;;;;5.25;2.50;;;;;;;15.96;58.47;100421.91;5139636;27;20141;-68
2023/12/27 10:51:40;;;;;;;5.15;2.67;;;;;;;15.90;57.71;100429.81;5140504;27;20041;-67
2023/12/27 10:54:06;;;;;;;5.13;3.90;;;;;;;15.99;58.00;100420.72;5139758;27;20359;-67
2023/12/27 10:56:38;;;;;;;5.95;2.80;;;;;;;16.06;56.71;100418.97;5139785;27;20039;-68
2023/12/27 10:59:08;;;;;;;3.97;2.30;;;;;;;16.08;56.57;100403.59;5140126;27;20031;-68
2023/12/27 11:01:38;;;;;;;5.72;3.08;;;;;;;16.13;56.59;100408.41;5140108;27;20452;-66
2023/12/27 11:04:11;;;;;;;6.38;3.00;;;;;;;16.14;56.98;100399.38;5140084;27;20041;-66
2023/12/27 11:06:38;;;;;;;6.93;2.70;;;;;;;16.13;56.63;100390.53;5139682;27;20039;-67
2023/12/27 11:09:07;;;;;;;6.65;2.30;;;;;;;16.19;56.25;100392.47;5139922;27;20034;-67
2023/12/27 11:11:36;;;;;;;4.82;2.38;;;;;;;16.22;55.62;100393.94;5139665;27;20268;-67
2023/12/27 11:14:04;;;;;;;6.22;2.70;;;;;;;16.20;55.90;100396.81;5139057;27;20292;-68
2023/12/27 11:16:34;;;;;;;5.68;2.60;;;;;;;16.23;55.06;100403.63;5138823;27;20043;-67
2023/12/27 11:19:01;;;;;;;5.60;2.55;;;;;;;16.18;54.76;100385.47;5139222;27;20056;-68
2023/12/27 11:21:27;;;;;;;4.18;2.85;;;;;;;16.28;55.37;100407.41;5140052;27;20066;-68